createdAt,value
2018-07-27T00:00:34.257Z,1009.26
2018-07-27T00:01:34.233Z,1009.25
2018-07-27T00:02:34.219Z,1009.24
2018-07-27T00:03:34.196Z,1009.28
2018-07-27T00:04:34.184Z,1009.27
2018-07-27T00:05:34.166Z,1009.26
2018-07-27T00:06:34.150Z,1009.29
2018-07-27T00:07:34.133Z,1009.25
2018-07-27T00:08:34.119Z,1009.23
2018-07-27T00:09:34.104Z,1009.27
2018-07-27T00:10:34.087Z,1009.27
2018-07-27T00:11:34.072Z,1009.28
2018-07-27T00:12:34.056Z,1009.25
2018-07-27T00:13:34.045Z,1009.24
2018-07-27T00:14:34.026Z,1009.22
2018-07-27T00:15:34.010Z,1009.24
2018-07-27T00:16:33.994Z,1009.22
2018-07-27T00:17:33.979Z,1009.21
2018-07-27T00:18:33.965Z,1009.20
2018-07-27T00:19:33.948Z,1009.16
2018-07-27T00:20:33.931Z,1009.20
2018-07-27T00:21:33.916Z,1009.16
2018-07-27T00:22:33.903Z,1009.19
2018-07-27T00:23:33.888Z,1009.17
2018-07-27T00:24:33.870Z,1009.20
2018-07-27T00:25:33.855Z,1009.14
2018-07-27T00:26:33.839Z,1009.13
2018-07-27T00:27:33.823Z,1009.14
2018-07-27T00:28:33.808Z,1009.16
2018-07-27T00:29:33.793Z,1009.17
2018-07-27T00:30:33.777Z,1009.14
2018-07-27T00:31:33.760Z,1009.16
2018-07-27T00:32:33.744Z,1009.17
2018-07-27T00:33:33.729Z,1009.18
2018-07-27T00:34:33.715Z,1009.20
2018-07-27T00:35:33.698Z,1009.17
2018-07-27T00:36:33.683Z,1009.16
2018-07-27T00:37:33.667Z,1009.14
2018-07-27T00:38:33.652Z,1009.18
2018-07-27T00:39:33.636Z,1009.13
2018-07-27T00:40:33.621Z,1009.14
2018-07-27T00:41:33.604Z,1009.16
2018-07-27T00:42:33.590Z,1009.13
2018-07-27T00:43:33.574Z,1009.16
2018-07-27T00:44:33.560Z,1009.15
2018-07-27T00:45:33.544Z,1009.13
2018-07-27T00:46:33.527Z,1009.16
2018-07-27T00:47:33.511Z,1009.14
2018-07-27T00:48:33.495Z,1009.11
2018-07-27T00:49:33.479Z,1009.15
2018-07-27T00:50:33.464Z,1009.16
2018-07-27T00:51:33.450Z,1009.12
2018-07-27T00:52:33.435Z,1009.13
2018-07-27T00:53:33.416Z,1009.14
2018-07-27T00:54:33.402Z,1009.13
2018-07-27T00:55:33.387Z,1009.17
2018-07-27T00:56:33.372Z,1009.12
2018-07-27T00:57:33.355Z,1009.16
2018-07-27T00:58:33.342Z,1009.13
2018-07-27T00:59:33.325Z,1009.14
2018-07-27T01:00:33.309Z,1009.10
2018-07-27T01:01:33.292Z,1009.12
2018-07-27T01:02:33.277Z,1009.18
2018-07-27T01:03:33.264Z,1009.12
2018-07-27T01:04:33.245Z,1009.13
2018-07-27T01:05:33.231Z,1009.14
2018-07-27T01:06:33.215Z,1009.10
2018-07-27T01:07:33.199Z,1009.10
2018-07-27T01:08:33.183Z,1009.12
2018-07-27T01:09:33.169Z,1009.07
2018-07-27T01:10:33.152Z,1009.10
2018-07-27T01:11:33.136Z,1009.03
2018-07-27T01:12:33.120Z,1009.10
2018-07-27T01:13:33.106Z,1009.12
2018-07-27T01:14:33.091Z,1009.07
2018-07-27T01:15:33.073Z,1009.12
2018-07-27T01:16:33.058Z,1009.09
2018-07-27T01:17:33.044Z,1009.07
2018-07-27T01:18:33.028Z,1009.06
2018-07-27T01:19:33.016Z,1009.08
2018-07-27T01:20:32.996Z,1009.12
2018-07-27T01:21:32.980Z,1009.11
2018-07-27T01:22:32.964Z,1009.06
2018-07-27T01:23:32.948Z,1009.05
2018-07-27T01:24:32.933Z,1009.06
2018-07-27T01:25:32.917Z,1009.06
2018-07-27T01:26:32.902Z,1009.04
2018-07-27T01:27:32.885Z,1009.01
2018-07-27T01:28:32.872Z,1009.01
2018-07-27T01:29:32.856Z,1008.98
2018-07-27T01:30:32.841Z,1008.99
2018-07-27T01:31:32.823Z,1008.91
2018-07-27T01:32:32.808Z,1008.95
2018-07-27T01:33:32.792Z,1008.91
2018-07-27T01:34:32.777Z,1008.93
2018-07-27T01:35:32.760Z,1008.93
2018-07-27T01:36:32.745Z,1008.94
2018-07-27T01:37:32.731Z,1008.94
2018-07-27T01:38:32.716Z,1008.96
2018-07-27T01:39:32.699Z,1008.95
2018-07-27T01:40:32.683Z,1008.98
2018-07-27T01:41:32.667Z,1008.96
2018-07-27T01:42:32.652Z,1008.93
2018-07-27T01:43:32.637Z,1008.92
2018-07-27T01:44:32.622Z,1008.92
2018-07-27T01:45:32.605Z,1008.90
2018-07-27T01:46:32.590Z,1008.91
2018-07-27T01:47:32.574Z,1008.92
2018-07-27T01:48:32.557Z,1008.92
2018-07-27T01:49:32.542Z,1008.95
2018-07-27T01:50:32.534Z,1008.92
2018-07-27T01:51:32.512Z,1008.89
2018-07-27T01:52:32.496Z,1008.91
2018-07-27T01:53:32.482Z,1008.89
2018-07-27T01:54:32.465Z,1008.91
2018-07-27T01:55:32.448Z,1008.86
2018-07-27T01:56:32.434Z,1008.87
2018-07-27T01:57:32.418Z,1008.86
2018-07-27T01:58:32.403Z,1008.88
2018-07-27T01:59:32.388Z,1008.91
2018-07-27T02:00:32.373Z,1008.86
2018-07-27T02:01:32.357Z,1008.89
2018-07-27T02:02:32.341Z,1008.89
2018-07-27T02:03:32.325Z,1008.87
2018-07-27T02:04:32.311Z,1008.89
2018-07-27T02:05:32.293Z,1008.89
2018-07-27T02:06:32.277Z,1008.88
2018-07-27T02:07:32.263Z,1008.86
2018-07-27T02:08:32.246Z,1008.86
2018-07-27T02:09:32.230Z,1008.84
2018-07-27T02:10:32.215Z,1008.85
2018-07-27T02:11:32.200Z,1008.87
2018-07-27T02:12:32.183Z,1008.87
2018-07-27T02:13:32.167Z,1008.85
2018-07-27T02:14:32.152Z,1008.87
2018-07-27T02:15:32.136Z,1008.88
2018-07-27T02:16:32.121Z,1008.83
2018-07-27T02:17:32.106Z,1008.84
2018-07-27T02:18:32.090Z,1008.88
2018-07-27T02:19:32.073Z,1008.85
2018-07-27T02:20:32.057Z,1008.84
2018-07-27T02:21:32.043Z,1008.88
2018-07-27T02:22:32.029Z,1008.86
2018-07-27T02:23:32.063Z,1008.86
2018-07-27T02:24:31.997Z,1008.80
2018-07-27T02:25:31.979Z,1008.81
2018-07-27T02:26:31.965Z,1008.80
2018-07-27T02:27:31.950Z,1008.78
2018-07-27T02:28:31.932Z,1008.74
2018-07-27T02:29:31.918Z,1008.76
2018-07-27T02:30:31.905Z,1008.72
2018-07-27T02:31:31.885Z,1008.76
2018-07-27T02:32:31.880Z,1008.77
2018-07-27T02:33:31.854Z,1008.74
2018-07-27T02:34:31.880Z,1008.71
2018-07-27T02:35:31.826Z,1008.69
2018-07-27T02:36:31.808Z,1008.71
2018-07-27T02:37:31.794Z,1008.72
2018-07-27T02:38:31.777Z,1008.71
2018-07-27T02:39:31.758Z,1008.72
2018-07-27T02:40:31.746Z,1008.76
2018-07-27T02:41:31.733Z,1008.74
2018-07-27T02:42:31.713Z,1008.72
2018-07-27T02:43:31.695Z,1008.70
2018-07-27T02:44:31.682Z,1008.71
2018-07-27T02:45:31.666Z,1008.73
2018-07-27T02:46:31.651Z,1008.66
2018-07-27T02:47:31.633Z,1008.69
2018-07-27T02:48:31.619Z,1008.68
2018-07-27T02:49:31.604Z,1008.66
2018-07-27T02:50:31.588Z,1008.65
2018-07-27T02:51:31.644Z,1008.67
2018-07-27T02:52:31.556Z,1008.65
2018-07-27T02:53:31.541Z,1008.64
2018-07-27T02:54:31.524Z,1008.67
2018-07-27T02:55:31.507Z,1008.66
2018-07-27T02:56:31.493Z,1008.62
2018-07-27T02:57:31.477Z,1008.67
2018-07-27T02:58:31.461Z,1008.68
2018-07-27T02:59:31.446Z,1008.69
2018-07-27T03:00:31.432Z,1008.65
2018-07-27T03:01:31.414Z,1008.73
2018-07-27T03:04:03.482Z,1008.73
2018-07-27T03:05:03.457Z,1008.72
2018-07-27T03:06:56.832Z,1008.67
2018-07-27T03:07:56.811Z,1008.70
2018-07-27T03:09:50.234Z,1008.70
2018-07-27T03:10:50.153Z,1008.65
2018-07-27T03:12:43.031Z,1008.66
2018-07-27T03:13:43.020Z,1008.65
2018-07-27T03:14:43.002Z,1008.67
2018-07-27T03:15:42.988Z,1008.65
2018-07-27T03:16:42.972Z,1008.68
2018-07-27T03:17:42.956Z,1008.66
2018-07-27T03:18:42.940Z,1008.65
2018-07-27T03:19:42.929Z,1008.61
2018-07-27T03:20:42.910Z,1008.62
2018-07-27T03:21:42.893Z,1008.64
2018-07-27T03:22:42.876Z,1008.65
2018-07-27T03:23:42.860Z,1008.63
2018-07-27T03:24:42.847Z,1008.63
2018-07-27T03:25:42.828Z,1008.63
2018-07-27T03:26:42.804Z,1008.57
2018-07-27T03:27:42.801Z,1008.60
2018-07-27T03:28:42.781Z,1008.59
2018-07-27T03:29:42.767Z,1008.58
2018-07-27T03:30:42.751Z,1008.59
2018-07-27T03:31:42.735Z,1008.56
2018-07-27T03:32:42.718Z,1008.53
2018-07-27T03:33:42.702Z,1008.57
2018-07-27T03:34:42.691Z,1008.54
2018-07-27T03:35:42.670Z,1008.55
2018-07-27T03:36:42.655Z,1008.54
2018-07-27T03:37:42.670Z,1008.54
2018-07-27T03:38:42.625Z,1008.54
2018-07-27T03:39:42.609Z,1008.55
2018-07-27T03:40:42.593Z,1008.53
2018-07-27T03:41:42.575Z,1008.53
2018-07-27T03:42:42.560Z,1008.58
2018-07-27T03:43:42.570Z,1008.56
2018-07-27T03:44:42.530Z,1008.58
2018-07-27T03:45:42.513Z,1008.55
2018-07-27T03:46:42.497Z,1008.53
2018-07-27T03:47:42.534Z,1008.53
2018-07-27T03:48:42.466Z,1008.53
2018-07-27T03:49:42.449Z,1008.56
2018-07-27T03:50:42.433Z,1008.55
2018-07-27T03:51:42.420Z,1008.54
2018-07-27T03:52:42.404Z,1008.52
2018-07-27T03:53:42.387Z,1008.54
2018-07-27T03:54:42.372Z,1008.50
2018-07-27T03:55:42.361Z,1008.49
2018-07-27T03:56:42.340Z,1008.46
2018-07-27T03:57:42.323Z,1008.49
2018-07-27T03:58:42.308Z,1008.45
2018-07-27T03:59:42.291Z,1008.50
2018-07-27T04:00:42.277Z,1008.49
2018-07-27T04:01:42.261Z,1008.47
2018-07-27T04:02:42.246Z,1008.48
2018-07-27T04:03:42.234Z,1008.49
2018-07-27T04:04:42.212Z,1008.53
2018-07-27T04:05:42.197Z,1008.49
2018-07-27T04:06:42.182Z,1008.50
2018-07-27T04:07:42.165Z,1008.55
2018-07-27T04:08:42.214Z,1008.52
2018-07-27T04:09:42.136Z,1008.55
2018-07-27T04:10:42.122Z,1008.60
2018-07-27T04:11:42.103Z,1008.56
2018-07-27T04:12:42.085Z,1008.58
2018-07-27T04:13:42.071Z,1008.59
2018-07-27T04:14:42.056Z,1008.59
2018-07-27T04:15:42.039Z,1008.63
2018-07-27T04:16:42.023Z,1008.63
2018-07-27T04:17:42.008Z,1008.66
2018-07-27T04:18:41.992Z,1008.66
2018-07-27T04:19:41.975Z,1008.69
2018-07-27T04:20:41.959Z,1008.68
2018-07-27T04:21:41.945Z,1008.69
2018-07-27T04:22:41.927Z,1008.70
2018-07-27T04:23:41.914Z,1008.71
2018-07-27T04:24:41.906Z,1008.71
2018-07-27T04:25:41.886Z,1008.71
2018-07-27T04:26:41.865Z,1008.75
2018-07-27T04:27:41.849Z,1008.74
2018-07-27T04:28:41.838Z,1008.73
2018-07-27T04:29:41.817Z,1008.76
2018-07-27T04:30:41.802Z,1008.74
2018-07-27T04:31:41.787Z,1008.76
2018-07-27T04:32:41.769Z,1008.69
2018-07-27T04:33:41.753Z,1008.73
2018-07-27T04:34:41.739Z,1008.72
2018-07-27T04:35:41.788Z,1008.74
2018-07-27T04:36:41.707Z,1008.73
2018-07-27T04:37:41.691Z,1008.76
2018-07-27T04:38:41.674Z,1008.77
2018-07-27T04:39:41.658Z,1008.74
2018-07-27T04:40:41.644Z,1008.76
2018-07-27T04:41:41.626Z,1008.74
2018-07-27T04:42:41.610Z,1008.74
2018-07-27T04:43:41.594Z,1008.77
2018-07-27T04:44:41.581Z,1008.76
2018-07-27T04:45:41.562Z,1008.76
2018-07-27T04:46:41.549Z,1008.77
2018-07-27T04:47:41.532Z,1008.77
2018-07-27T04:48:41.522Z,1008.73
2018-07-27T04:49:41.500Z,1008.73
2018-07-27T04:50:41.484Z,1008.75
2018-07-27T04:51:41.468Z,1008.76
2018-07-27T04:52:41.455Z,1008.71
2018-07-27T04:53:41.435Z,1008.76
2018-07-27T04:54:41.421Z,1008.74
2018-07-27T04:55:41.404Z,1008.76
2018-07-27T04:56:41.453Z,1008.78
2018-07-27T04:57:41.371Z,1008.76
2018-07-27T04:58:41.358Z,1008.77
2018-07-27T04:59:41.342Z,1008.77
2018-07-27T05:00:41.327Z,1008.76
2018-07-27T05:01:41.311Z,1008.78
2018-07-27T05:02:41.296Z,1008.77
2018-07-27T05:03:41.279Z,1008.76
2018-07-27T05:04:41.313Z,1008.82
2018-07-27T05:05:41.246Z,1008.81
2018-07-27T05:06:41.229Z,1008.78
2018-07-27T05:07:41.214Z,1008.79
2018-07-27T05:08:41.198Z,1008.81
2018-07-27T05:09:41.182Z,1008.74
2018-07-27T05:10:41.171Z,1008.76
2018-07-27T05:11:41.157Z,1008.75
2018-07-27T05:12:41.141Z,1008.77
2018-07-27T05:13:41.119Z,1008.75
2018-07-27T05:14:41.108Z,1008.76
2018-07-27T05:15:41.090Z,1008.78
2018-07-27T05:16:41.071Z,1008.78
2018-07-27T05:17:41.055Z,1008.78
2018-07-27T05:18:41.040Z,1008.78
2018-07-27T05:19:41.025Z,1008.75
2018-07-27T05:20:41.011Z,1008.77
2018-07-27T05:21:40.991Z,1008.78
2018-07-27T05:22:40.976Z,1008.76
2018-07-27T05:23:40.960Z,1008.79
2018-07-27T05:24:40.984Z,1008.77
2018-07-27T05:25:40.929Z,1008.75
2018-07-27T05:26:40.914Z,1008.75
2018-07-27T05:27:40.903Z,1008.77
2018-07-27T05:28:40.881Z,1008.73
2018-07-27T05:29:40.866Z,1008.75
2018-07-27T05:30:40.850Z,1008.71
2018-07-27T05:31:40.832Z,1008.73
2018-07-27T05:32:40.819Z,1008.71
2018-07-27T05:33:40.800Z,1008.72
2018-07-27T05:34:40.792Z,1008.76
2018-07-27T05:35:40.769Z,1008.73
2018-07-27T05:36:40.754Z,1008.71
2018-07-27T05:37:40.739Z,1008.69
2018-07-27T05:38:40.722Z,1008.72
2018-07-27T05:39:40.708Z,1008.68
2018-07-27T05:40:40.690Z,1008.70
2018-07-27T05:41:40.678Z,1008.69
2018-07-27T05:42:40.659Z,1008.69
2018-07-27T05:43:40.642Z,1008.69
2018-07-27T05:44:40.626Z,1008.67
2018-07-27T05:45:40.609Z,1008.66
2018-07-27T05:46:40.593Z,1008.70
2018-07-27T05:47:40.581Z,1008.67
2018-07-27T05:48:40.588Z,1008.68
2018-07-27T05:49:40.548Z,1008.65
2018-07-27T05:50:40.531Z,1008.70
2018-07-27T05:51:40.514Z,1008.71
2018-07-27T05:52:40.530Z,1008.68
2018-07-27T05:53:40.482Z,1008.70
2018-07-27T05:54:40.468Z,1008.70
2018-07-27T05:57:12.535Z,1008.72
2018-07-27T05:58:12.507Z,1008.72
2018-07-27T06:00:05.890Z,1008.72
2018-07-27T06:01:05.906Z,1008.72
2018-07-27T06:02:59.248Z,1008.76
2018-07-27T06:03:59.207Z,1008.77
2018-07-27T06:05:52.579Z,1008.75
2018-07-27T06:06:52.553Z,1008.79
2018-07-27T06:08:45.930Z,1008.78
2018-07-27T06:09:45.897Z,1008.81
2018-07-27T06:11:40.268Z,1008.78
2018-07-27T06:12:40.240Z,1008.79
2018-07-27T06:13:40.224Z,1008.79
2018-07-27T06:14:40.208Z,1008.76
2018-07-27T06:15:40.191Z,1008.75
2018-07-27T06:16:40.177Z,1008.74
2018-07-27T06:17:40.160Z,1008.78
2018-07-27T06:18:40.144Z,1008.75
2018-07-27T06:19:40.129Z,1008.75
2018-07-27T06:20:40.114Z,1008.72
2018-07-27T06:21:40.100Z,1008.76
2018-07-27T06:22:40.105Z,1008.71
2018-07-27T06:23:40.109Z,1008.76
2018-07-27T06:24:40.052Z,1008.74
2018-07-27T06:25:40.056Z,1008.79
2018-07-27T06:26:40.023Z,1008.77
2018-07-27T06:27:40.005Z,1008.76
2018-07-27T06:28:39.988Z,1008.79
2018-07-27T06:29:39.970Z,1008.76
2018-07-27T06:30:39.954Z,1008.75
2018-07-27T06:31:39.940Z,1008.76
2018-07-27T06:32:39.923Z,1008.80
2018-07-27T06:33:39.916Z,1008.76
2018-07-27T06:34:39.893Z,1008.75
2018-07-27T06:35:39.875Z,1008.72
2018-07-27T06:36:39.861Z,1008.74
2018-07-27T06:37:39.845Z,1008.74
2018-07-27T06:38:39.826Z,1008.68
2018-07-27T06:39:39.821Z,1008.72
2018-07-27T06:40:39.797Z,1008.69
2018-07-27T06:41:39.779Z,1008.70
2018-07-27T06:42:39.764Z,1008.69
2018-07-27T06:43:39.748Z,1008.67
2018-07-27T06:44:39.733Z,1008.69
2018-07-27T06:45:39.721Z,1008.69
2018-07-27T06:46:39.701Z,1008.69
2018-07-27T06:47:39.691Z,1008.69
2018-07-27T06:48:39.670Z,1008.65
2018-07-27T06:49:39.655Z,1008.63
2018-07-27T06:50:39.636Z,1008.68
2018-07-27T06:51:39.621Z,1008.68
2018-07-27T06:52:39.612Z,1008.65
2018-07-27T06:53:39.591Z,1008.67
2018-07-27T06:54:39.576Z,1008.67
2018-07-27T06:55:39.561Z,1008.67
2018-07-27T06:56:39.556Z,1008.68
2018-07-27T06:57:39.528Z,1008.69
2018-07-27T06:58:39.517Z,1008.71
2018-07-27T06:59:39.494Z,1008.71
2018-07-27T07:00:39.479Z,1008.70
2018-07-27T07:01:39.464Z,1008.68
2018-07-27T07:02:39.446Z,1008.61
2018-07-27T07:03:39.432Z,1008.67
2018-07-27T07:04:39.421Z,1008.64
2018-07-27T07:05:39.399Z,1008.64
2018-07-27T07:06:39.383Z,1008.61
2018-07-27T07:07:39.368Z,1008.62
2018-07-27T07:08:39.351Z,1008.67
2018-07-27T07:09:39.338Z,1008.63
2018-07-27T07:10:39.322Z,1008.63
2018-07-27T07:11:39.305Z,1008.68
2018-07-27T07:12:39.289Z,1008.65
2018-07-27T07:13:39.272Z,1008.64
2018-07-27T07:14:39.256Z,1008.66
2018-07-27T07:15:39.242Z,1008.66
2018-07-27T07:16:39.229Z,1008.63
2018-07-27T07:17:39.208Z,1008.62
2018-07-27T07:18:39.194Z,1008.63
2018-07-27T07:19:39.176Z,1008.60
2018-07-27T07:20:39.161Z,1008.63
2018-07-27T07:21:39.145Z,1008.60
2018-07-27T07:22:39.129Z,1008.60
2018-07-27T07:23:39.114Z,1008.60
2018-07-27T07:24:39.098Z,1008.58
2018-07-27T07:25:39.192Z,1008.58
2018-07-27T07:26:39.067Z,1008.57
2018-07-27T07:27:39.052Z,1008.57
2018-07-27T07:28:39.035Z,1008.58
2018-07-27T07:29:39.017Z,1008.59
2018-07-27T07:30:39.001Z,1008.54
2018-07-27T07:31:38.986Z,1008.53
2018-07-27T07:32:38.972Z,1008.58
2018-07-27T07:33:38.954Z,1008.59
2018-07-27T07:34:38.937Z,1008.58
2018-07-27T07:35:38.922Z,1008.57
2018-07-27T07:36:38.906Z,1008.56
2018-07-27T07:37:38.890Z,1008.56
2018-07-27T07:38:38.874Z,1008.53
2018-07-27T07:39:38.858Z,1008.50
2018-07-27T07:40:38.842Z,1008.53
2018-07-27T07:41:38.827Z,1008.50
2018-07-27T07:42:38.810Z,1008.51
2018-07-27T07:43:38.794Z,1008.48
2018-07-27T07:44:38.780Z,1008.45
2018-07-27T07:45:38.762Z,1008.50
2018-07-27T07:46:38.747Z,1008.49
2018-07-27T07:47:38.730Z,1008.49
2018-07-27T07:48:38.715Z,1008.49
2018-07-27T07:49:38.697Z,1008.48
2018-07-27T07:50:38.684Z,1008.48
2018-07-27T07:51:38.670Z,1008.47
2018-07-27T07:52:38.652Z,1008.48
2018-07-27T07:53:38.635Z,1008.44
2018-07-27T07:54:38.620Z,1008.45
2018-07-27T07:55:38.604Z,1008.42
2018-07-27T07:56:38.587Z,1008.44
2018-07-27T07:57:38.571Z,1008.43
2018-07-27T07:58:38.560Z,1008.40
2018-07-27T07:59:38.544Z,1008.40
2018-07-27T08:00:38.525Z,1008.37
2018-07-27T08:01:38.507Z,1008.40
2018-07-27T08:02:38.493Z,1008.37
2018-07-27T08:03:38.477Z,1008.37
2018-07-27T08:04:38.460Z,1008.34
2018-07-27T08:05:38.477Z,1008.35
2018-07-27T08:06:38.433Z,1008.33
2018-07-27T08:07:38.413Z,1008.33
2018-07-27T08:08:38.396Z,1008.33
2018-07-27T08:09:38.379Z,1008.29
2018-07-27T08:10:38.363Z,1008.28
2018-07-27T08:11:38.349Z,1008.31
2018-07-27T08:12:38.333Z,1008.30
2018-07-27T08:13:38.316Z,1008.31
2018-07-27T08:16:10.394Z,1008.21
2018-07-27T08:17:10.368Z,1008.25
2018-07-27T08:19:03.739Z,1008.21
2018-07-27T08:20:03.712Z,1008.24
2018-07-27T08:21:57.095Z,1008.23
2018-07-27T08:22:57.066Z,1008.25
2018-07-27T08:24:50.442Z,1008.25
2018-07-27T08:25:50.476Z,1008.23
2018-07-27T08:27:43.794Z,1008.25
2018-07-27T08:28:43.770Z,1008.19
2018-07-27T08:30:37.142Z,1008.18
2018-07-27T08:31:37.123Z,1008.12
2018-07-27T08:33:30.507Z,1008.13
2018-07-27T08:34:30.478Z,1008.14
2018-07-27T08:36:23.851Z,1008.16
2018-07-27T08:37:23.835Z,1008.14
2018-07-27T08:39:17.210Z,1008.15
2018-07-27T08:40:17.177Z,1008.16
2018-07-27T08:42:10.545Z,1008.14
2018-07-27T08:43:10.520Z,1008.09
2018-07-27T08:45:03.893Z,1008.10
2018-07-27T08:46:03.865Z,1008.07
2018-07-27T08:47:57.229Z,1008.07
2018-07-27T08:48:57.210Z,1008.07
2018-07-27T08:50:50.581Z,1008.08
2018-07-27T08:51:50.553Z,1008.04
2018-07-27T08:53:43.918Z,1008.04
2018-07-27T08:54:43.899Z,1008.00
2018-07-27T08:56:37.272Z,1007.97
2018-07-27T08:57:37.245Z,1007.95
2018-07-27T08:59:30.609Z,1007.95
2018-07-27T09:00:30.588Z,1007.93
2018-07-27T09:02:23.960Z,1007.94
2018-07-27T09:03:23.934Z,1007.85
2018-07-27T09:05:17.309Z,1007.91
2018-07-27T09:06:17.288Z,1007.89
2018-07-27T09:08:10.663Z,1007.87
2018-07-27T09:09:10.635Z,1007.83
2018-07-27T09:11:04.056Z,1007.79
2018-07-27T09:12:04.037Z,1007.77
2018-07-27T09:13:57.419Z,1007.83
2018-07-27T09:14:57.390Z,1007.74
2018-07-27T09:16:50.755Z,1007.78
2018-07-27T09:17:50.736Z,1007.78
2018-07-27T09:19:44.107Z,1007.77
2018-07-27T09:20:44.080Z,1007.74
2018-07-27T09:22:37.445Z,1007.74
2018-07-27T09:23:37.429Z,1007.75
2018-07-27T09:25:30.810Z,1007.71
2018-07-27T09:26:30.780Z,1007.67
2018-07-27T09:28:24.158Z,1007.75
2018-07-27T09:29:24.135Z,1007.70
2018-07-27T09:31:17.507Z,1007.72
2018-07-27T09:32:17.479Z,1007.66
2018-07-27T09:34:10.895Z,1007.71
2018-07-27T09:35:10.863Z,1007.69
2018-07-27T09:37:04.197Z,1007.66
2018-07-27T09:38:04.169Z,1007.67
2018-07-27T09:39:57.536Z,1007.60
2018-07-27T09:40:57.514Z,1007.65
2018-07-27T09:42:50.890Z,1007.56
2018-07-27T09:43:50.856Z,1007.67
2018-07-27T09:45:44.222Z,1007.61
2018-07-27T09:46:44.205Z,1007.65
2018-07-27T09:48:37.587Z,1007.54
2018-07-27T09:49:37.560Z,1007.57
2018-07-27T09:51:30.963Z,1007.56
2018-07-27T09:52:30.903Z,1007.56
2018-07-27T09:54:24.275Z,1007.51
2018-07-27T09:55:24.248Z,1007.52
2018-07-27T09:57:17.622Z,1007.55
2018-07-27T09:58:17.604Z,1007.51
2018-07-27T10:00:10.974Z,1007.50
2018-07-27T10:01:10.953Z,1007.50
2018-07-27T10:03:04.320Z,1007.48
2018-07-27T10:04:04.304Z,1007.51
2018-07-27T10:05:57.675Z,1007.48
2018-07-27T10:06:57.648Z,1007.50
2018-07-27T10:08:51.030Z,1007.46
2018-07-27T10:09:50.997Z,1007.44
2018-07-27T10:11:44.366Z,1007.44
2018-07-27T10:12:44.382Z,1007.42
2018-07-27T10:14:37.721Z,1007.43
2018-07-27T10:15:37.690Z,1007.40
2018-07-27T10:17:31.054Z,1007.42
2018-07-27T10:18:31.072Z,1007.42
2018-07-27T10:20:24.407Z,1007.44
2018-07-27T10:21:24.379Z,1007.43
2018-07-27T10:23:17.742Z,1007.41
2018-07-27T10:24:17.723Z,1007.39
2018-07-27T10:26:11.117Z,1007.39
2018-07-27T10:27:11.089Z,1007.38
2018-07-27T10:29:04.468Z,1007.34
2018-07-27T10:30:04.449Z,1007.29
2018-07-27T10:31:57.819Z,1007.27
2018-07-27T10:32:57.792Z,1007.33
2018-07-27T10:34:51.156Z,1007.21
2018-07-27T10:35:51.138Z,1007.26
2018-07-27T10:37:44.520Z,1007.25
2018-07-27T10:38:44.533Z,1007.26
2018-07-27T10:40:37.866Z,1007.22
2018-07-27T10:41:37.851Z,1007.19
2018-07-27T10:43:31.220Z,1007.17
2018-07-27T10:44:31.193Z,1007.16
2018-07-27T10:46:24.561Z,1007.14
2018-07-27T10:47:24.536Z,1007.10
2018-07-27T10:49:17.918Z,1007.14
2018-07-27T10:50:17.980Z,1007.08
2018-07-27T10:52:11.265Z,1007.09
2018-07-27T10:53:11.246Z,1007.06
2018-07-27T10:55:04.624Z,1007.02
2018-07-27T10:56:04.590Z,1007.04
2018-07-27T10:57:57.956Z,1007.00
2018-07-27T10:58:57.937Z,1006.94
2018-07-27T11:00:51.308Z,1006.99
2018-07-27T11:01:51.280Z,1007.03
2018-07-27T11:03:45.647Z,1007.01
2018-07-27T11:04:45.625Z,1006.99
2018-07-27T11:06:39.000Z,1006.96
2018-07-27T11:07:38.968Z,1006.94
2018-07-27T11:09:32.335Z,1006.86
2018-07-27T11:10:32.314Z,1006.88
2018-07-27T11:12:25.690Z,1006.90
2018-07-27T11:13:25.660Z,1006.90
2018-07-27T11:15:19.057Z,1006.88
2018-07-27T11:16:19.054Z,1006.84
2018-07-27T11:18:12.418Z,1006.87
2018-07-27T11:19:12.391Z,1006.87
2018-07-27T11:21:05.756Z,1006.81
2018-07-27T11:22:05.737Z,1006.82
2018-07-27T11:23:59.108Z,1006.86
2018-07-27T11:24:59.078Z,1006.81
2018-07-27T11:26:51.955Z,1006.75
2018-07-27T11:27:51.937Z,1006.74
2018-07-27T11:29:45.300Z,1006.71
2018-07-27T11:30:45.272Z,1006.66
2018-07-27T11:32:38.637Z,1006.64
2018-07-27T11:33:38.684Z,1006.66
2018-07-27T11:35:32.096Z,1006.61
2018-07-27T11:36:32.035Z,1006.64
2018-07-27T11:38:25.400Z,1006.61
2018-07-27T11:39:25.380Z,1006.60
2018-07-27T11:41:18.756Z,1006.58
2018-07-27T11:42:18.752Z,1006.55
2018-07-27T11:44:12.090Z,1006.56
2018-07-27T11:45:12.073Z,1006.57
2018-07-27T11:47:05.443Z,1006.53
2018-07-27T11:48:05.416Z,1006.53
2018-07-27T11:49:58.785Z,1006.45
2018-07-27T11:50:58.760Z,1006.46
2018-07-27T11:51:58.747Z,1006.49
2018-07-27T11:52:58.730Z,1006.49
2018-07-27T11:53:58.714Z,1006.50
2018-07-27T11:54:58.699Z,1006.45
2018-07-27T11:55:58.682Z,1006.41
2018-07-27T11:56:58.665Z,1006.41
2018-07-27T11:57:58.652Z,1006.41
2018-07-27T11:58:58.637Z,1006.45
2018-07-27T11:59:58.620Z,1006.44
2018-07-27T12:00:58.606Z,1006.42
2018-07-27T12:01:58.588Z,1006.39
2018-07-27T12:02:58.571Z,1006.39
2018-07-27T12:03:58.585Z,1006.35
2018-07-27T12:04:58.539Z,1006.34
2018-07-27T12:05:58.523Z,1006.32
2018-07-27T12:06:58.514Z,1006.29
2018-07-27T12:07:58.492Z,1006.28
2018-07-27T12:08:58.477Z,1006.27
2018-07-27T12:09:58.460Z,1006.27
2018-07-27T12:10:58.445Z,1006.29
2018-07-27T12:11:58.429Z,1006.34
2018-07-27T12:12:58.415Z,1006.28
2018-07-27T12:13:58.524Z,1006.21
2018-07-27T12:14:58.494Z,1006.31
2018-07-27T12:15:58.365Z,1006.21
2018-07-27T12:16:58.352Z,1006.20
2018-07-27T12:17:58.333Z,1006.13
2018-07-27T12:18:58.320Z,1006.14
2018-07-27T12:19:58.306Z,1006.13
2018-07-27T12:20:58.437Z,1006.11
2018-07-27T12:21:58.270Z,1006.13
2018-07-27T12:22:58.256Z,1006.06
2018-07-27T12:23:58.240Z,1006.07
2018-07-27T12:24:58.223Z,1006.10
2018-07-27T12:25:58.207Z,1006.06
2018-07-27T12:26:58.213Z,1006.01
2018-07-27T12:27:58.176Z,1006.04
2018-07-27T12:28:58.159Z,1006.06
2018-07-27T12:29:58.147Z,1006.03
2018-07-27T12:30:58.133Z,1006.05
2018-07-27T12:31:58.113Z,1006.06
2018-07-27T12:32:58.099Z,1006.07
2018-07-27T12:33:58.081Z,1006.04
2018-07-27T12:34:58.067Z,1006.00
2018-07-27T12:35:58.050Z,1006.04
2018-07-27T12:36:58.034Z,1006.01
2018-07-27T12:37:58.020Z,1005.99
2018-07-27T12:38:58.006Z,1005.95
2018-07-27T12:39:57.987Z,1005.91
2018-07-27T12:40:57.973Z,1005.90
2018-07-27T12:41:57.955Z,1005.87
2018-07-27T12:42:57.940Z,1005.89
2018-07-27T12:43:57.925Z,1005.89
2018-07-27T12:44:57.964Z,1005.89
2018-07-27T12:45:57.894Z,1005.91
2018-07-27T12:46:57.878Z,1005.89
2018-07-27T12:47:57.862Z,1005.86
2018-07-27T12:48:57.846Z,1005.90
2018-07-27T12:49:57.830Z,1005.86
2018-07-27T12:50:57.814Z,1005.82
2018-07-27T12:51:57.799Z,1005.83
2018-07-27T12:52:57.782Z,1005.87
2018-07-27T12:53:57.781Z,1005.78
2018-07-27T12:54:57.755Z,1005.78
2018-07-27T12:55:57.738Z,1005.72
2018-07-27T12:56:57.720Z,1005.71
2018-07-27T12:57:57.704Z,1005.76
2018-07-27T12:58:57.706Z,1005.71
2018-07-27T12:59:57.673Z,1005.67
2018-07-27T13:00:57.657Z,1005.70
2018-07-27T13:01:57.643Z,1005.70
2018-07-27T13:02:57.628Z,1005.73
2018-07-27T13:03:57.613Z,1005.68
2018-07-27T13:04:57.596Z,1005.69
2018-07-27T13:05:57.579Z,1005.77
2018-07-27T13:06:57.564Z,1005.76
2018-07-27T13:07:57.547Z,1005.70
2018-07-27T13:08:57.531Z,1005.69
2018-07-27T13:09:57.518Z,1005.61
2018-07-27T13:10:57.500Z,1005.63
2018-07-27T13:11:57.485Z,1005.61
2018-07-27T13:12:57.470Z,1005.64
2018-07-27T13:13:57.455Z,1005.61
2018-07-27T13:15:57.446Z,1005.56
2018-07-27T13:16:57.405Z,1005.51
2018-07-27T13:17:57.391Z,1005.49
2018-07-27T13:18:57.375Z,1005.48
2018-07-27T13:19:57.360Z,1005.48
2018-07-27T13:20:57.346Z,1005.49
2018-07-27T13:21:57.361Z,1005.41
2018-07-27T13:22:57.313Z,1005.42
2018-07-27T13:23:57.301Z,1005.46